NCAR-RAP Real-Time Weather Data

Output produced by METARs form (23 February 2020  02:40 UTC)
found at http://weather.rap.ucar.edu/surface/
 
KBDR 230152Z 00000KT 10SM CLR 03/M10 A3019 RMK AO2 SLP224 T00331100
KBDR 230052Z 00000KT 10SM CLR 03/M09 A3018 RMK AO2 SLP220 T00281094
KBDR 222352Z 30004KT 10SM CLR 04/M09 A3018 RMK AO2 SLP218 T00441089 10078 20039 53013
KBDR 222252Z 26004KT 10SM CLR 05/M04 A3014 RMK AO2 SLP207 T00501044
KBDR 222152Z 23009KT 10SM CLR 07/M04 A3013 RMK AO2 SLP202 T00671039
KBDR 222052Z 22012KT 10SM CLR 07/M05 A3014 RMK AO2 SLP206 T00721050 56013
KBDR 221952Z 23011KT 10SM CLR 07/M07 A3014 RMK AO2 SLP207 T00721067
KBDR 221852Z 22016KT 10SM CLR 07/M07 A3016 RMK AO2 SLP211 T00671067
KBDR 221752Z 22017G23KT 10SM CLR 06/M06 A3018 RMK AO2 SLP218 T00561061 10061 21011 58028
KBDR 221652Z 22013KT 10SM CLR 05/M08 A3022 RMK AO2 SLP231 T00501078
KBDR 221552Z VRB06KT 10SM CLR 05/M12 A3024 RMK AO2 SLP240 T00501122
KBDR 221452Z 27008KT 10SM CLR 03/M13 A3026 RMK AO2 SLP246 T00281128 50000
KBDR 221352Z 25007KT 10SM CLR 01/M12 A3027 RMK AO2 SLP250 T00111117
KBDR 221252Z 24008KT 10SM CLR M01/M11 A3027 RMK AO2 SLP249 T10061111
KBDR 221152Z 25009KT 10SM CLR M01/M11 A3026 RMK AO2 SLP246 T10111111 10000 21017 53005
KBDR 221052Z AUTO 26005KT 10SM CLR M02/M12 A3025 RMK AO2 SLP244 T10171122
KBDR 220952Z AUTO 25008KT 10SM CLR M01/M11 A3024 RMK AO2 SLP239 T10061106
KBDR 220852Z AUTO 24009KT 10SM CLR M01/M11 A3024 RMK AO2 SLP241 T10061111 56020
KBDR 220752Z AUTO 24009KT 10SM CLR 00/M11 A3025 RMK AO2 SLP244 T00001106
KBDR 220652Z AUTO 26006KT 10SM CLR M01/M12 A3029 RMK AO2 SLP255 T10061117
KBDR 220552Z AUTO 25007KT 10SM CLR M01/M12 A3030 RMK AO2 SLP260 T10061117 10011 21011 56020
KBDR 220452Z AUTO 25005KT 10SM CLR M01/M12 A3031 RMK AO2 SLP265 T10061122 400171072
KBDR 220352Z AUTO 26006KT 10SM CLR 00/M12 A3034 RMK AO2 SLP273 T00001122
KBDR 220252Z 25006KT 10SM CLR 01/M12 A3036 RMK AO2 SLP280 T00061117 58013
KBDR 220152Z 22009KT 10SM CLR 01/M11 A3038 RMK AO2 SLP286 T00061106
KBDR 220052Z 23007KT 10SM CLR 01/M12 A3038 RMK AO2 SLP288 T00061122
KBDR 212352Z 00000KT 10SM CLR M01/M15 A3040 RMK AO2 SLP293 T10061150 10017 21011 56003
KBDR 212252Z 25003KT 10SM CLR 00/M17 A3040 RMK AO2 SLP293 T00001172
KBDR 212152Z 29007KT 10SM CLR 01/M18 A3040 RMK AO2 SLP292 T00111183
KBDR 212052Z 21011KT 10SM CLR 01/M14 A3041 RMK AO2 SLP296 T00061139 56018
KBDR 211952Z 17007KT 10SM CLR M01/M14 A3042 RMK AO2 SLP300 T10061139
KBDR 211852Z 18009KT 10SM CLR M01/M13 A3044 RMK AO2 SLP306 T10111133
KBDR 211752Z VRB06KT 10SM CLR M01/M15 A3046 RMK AO2 SLP313 T10111150 10006 21067 58016
KBDR 211652Z 34009G16KT 10SM CLR M01/M19 A3048 RMK AO2 SLP321 T10061194
KBDR 211552Z 02005KT 10SM CLR M02/M16 A3050 RMK AO2 SLP327 T10221161
KBDR 211452Z 01007KT 10SM CLR M03/M16 A3051 RMK AO2 SLP330 T10331156 51013
KBDR 211352Z 34012G18KT 10SM CLR M04/M15 A3049 RMK AO2 SLP325 T10441150
KBDR 211252Z 34012KT 10SM CLR M06/M14 A3049 RMK AO2 SLP324 T10611144
KBDR 211152Z 35008KT 10SM CLR M07/M15 A3047 RMK AO2 SLP316 T10671150 11050 21072 53004
KBDR 211052Z AUTO 35006KT 10SM CLR M07/M15 A3046 RMK AO2 SLP313 T10721150
KBDR 210952Z AUTO 01007KT 10SM CLR M07/M15 A3045 RMK AO2 SLP310 T10671150
KBDR 210852Z AUTO 35006KT 10SM CLR M06/M15 A3045 RMK AO2 SLP312 T10611150 50001
KBDR 210752Z AUTO 36008KT 10SM CLR M06/M15 A3046 RMK AO2 SLP314 T10561150
KBDR 210652Z AUTO 35007G16KT 10SM CLR M06/M16 A3046 RMK AO2 SLP314 T10561156
KBDR 210552Z AUTO 34011KT 10SM CLR M05/M16 A3045 RMK AO2 SLP311 T10501161 10006 21050 51003
KBDR 210452Z AUTO 35008KT 10SM CLR M04/M15 A3045 RMK AO2 SLP311 T10441150 400221044
KBDR 210352Z AUTO 34012KT 10SM CLR M03/M15 A3045 RMK AO2 SLP310 T10331150
KBDR 210252Z 34013KT 10SM CLR M03/M13 A3044 RMK AO2 SLP308 T10281133 51014